createdAt,value
2022-08-26T00:01:37.405Z,20.59
2022-08-26T00:04:04.137Z,20.57
2022-08-26T00:06:38.412Z,20.54
2022-08-26T00:09:09.795Z,20.52
2022-08-26T00:11:43.404Z,20.54
2022-08-26T00:14:09.923Z,20.52
2022-08-26T00:16:47.314Z,20.52
2022-08-26T00:19:16.511Z,20.49
2022-08-26T00:21:50.403Z,20.49
2022-08-26T00:24:18.587Z,20.50
2022-08-26T00:26:51.581Z,20.46
2022-08-26T00:29:18.450Z,20.44
2022-08-26T00:31:45.717Z,20.40
2022-08-26T00:34:19.703Z,20.42
2022-08-26T00:36:46.559Z,20.38
2022-08-26T00:39:19.401Z,20.38
2022-08-26T00:41:47.365Z,20.33
2022-08-26T00:44:20.399Z,20.34
2022-08-26T00:46:49.697Z,20.27
2022-08-26T00:49:24.413Z,20.25
2022-08-26T00:51:52.413Z,20.24
2022-08-26T00:54:27.008Z,20.22
2022-08-26T00:56:57.671Z,20.24
2022-08-26T00:59:33.378Z,20.20
2022-08-26T01:02:00.488Z,20.21
2022-08-26T01:04:37.411Z,20.33
2022-08-26T01:07:04.161Z,20.36
2022-08-26T01:09:39.745Z,20.36
2022-08-26T01:12:06.474Z,20.33
2022-08-26T01:14:42.609Z,20.26
2022-08-26T01:17:13.698Z,20.19
2022-08-26T01:19:52.386Z,20.18
2022-08-26T01:22:28.624Z,20.17
2022-08-26T01:25:03.817Z,20.15
2022-08-26T01:27:39.415Z,20.13
2022-08-26T01:30:06.652Z,20.15
2022-08-26T01:32:40.396Z,20.13
2022-08-26T01:35:14.514Z,20.13
2022-08-26T01:37:48.411Z,20.11
2022-08-26T01:40:18.683Z,20.13
2022-08-26T01:42:53.393Z,20.11
2022-08-26T01:45:22.741Z,20.12
2022-08-26T01:47:57.437Z,20.07
2022-08-26T01:50:28.208Z,20.09
2022-08-26T01:53:05.505Z,20.12
2022-08-26T01:55:34.140Z,20.12
2022-08-26T01:58:11.381Z,20.13
2022-08-26T02:00:39.400Z,20.11
2022-08-26T02:03:28.426Z,20.07
2022-08-26T02:06:01.032Z,20.10
2022-08-26T02:08:45.374Z,20.10
2022-08-26T02:11:12.744Z,20.03
2022-08-26T02:13:50.414Z,20.06
2022-08-26T02:16:50.384Z,20.08
2022-08-26T02:19:27.398Z,20.12
2022-08-26T02:21:54.029Z,20.12
2022-08-26T02:24:29.558Z,20.13
2022-08-26T02:26:58.102Z,20.11
2022-08-26T02:29:41.370Z,20.13
2022-08-26T02:32:08.619Z,20.13
2022-08-26T02:34:48.371Z,20.14
2022-08-26T02:37:15.040Z,20.13
2022-08-26T02:39:51.612Z,20.11
2022-08-26T02:42:18.738Z,20.11
2022-08-26T02:44:52.364Z,20.13
2022-08-26T02:47:25.396Z,20.10
2022-08-26T02:50:02.388Z,20.13
2022-08-26T02:52:29.171Z,20.13
2022-08-26T02:55:03.369Z,20.12
2022-08-26T02:57:37.376Z,20.08
2022-08-26T03:00:05.964Z,20.07
2022-08-26T03:02:39.386Z,20.12
2022-08-26T03:05:06.369Z,20.22
2022-08-26T03:07:39.414Z,20.17
2022-08-26T03:10:08.473Z,20.37
2022-08-26T03:12:35.977Z,20.24
2022-08-26T03:15:17.996Z,20.19
2022-08-26T03:17:46.634Z,20.14
2022-08-26T03:20:20.377Z,20.13
2022-08-26T03:22:53.373Z,20.21
2022-08-26T03:25:23.088Z,20.14
2022-08-26T03:27:57.386Z,20.12
2022-08-26T03:30:45.359Z,20.09
2022-08-26T03:33:19.391Z,20.06
2022-08-26T03:35:59.377Z,20.04
2022-08-26T03:38:32.375Z,20.01
2022-08-26T03:40:59.261Z,20.02
2022-08-26T03:43:33.373Z,19.94
2022-08-26T03:46:04.113Z,19.89
2022-08-26T03:48:38.384Z,19.89
2022-08-26T03:51:05.755Z,19.87
2022-08-26T03:53:39.364Z,19.83
2022-08-26T03:56:06.705Z,19.87
2022-08-26T03:58:39.392Z,19.88
2022-08-26T04:01:09.715Z,19.94
2022-08-26T04:04:01.395Z,19.94
2022-08-26T04:06:29.674Z,19.97
2022-08-26T04:09:04.393Z,19.93
2022-08-26T04:11:34.373Z,19.95
2022-08-26T04:14:12.370Z,19.94
2022-08-26T04:16:41.547Z,19.94
2022-08-26T04:19:17.387Z,19.91
2022-08-26T04:21:45.953Z,19.92
2022-08-26T04:24:19.410Z,19.91
2022-08-26T04:26:46.393Z,19.89
2022-08-26T04:29:21.362Z,19.92
2022-08-26T04:31:48.680Z,19.97
2022-08-26T04:34:28.812Z,20.01
2022-08-26T04:37:02.530Z,20.03
2022-08-26T04:39:36.351Z,20.05
2022-08-26T04:42:09.398Z,20.07
2022-08-26T04:44:43.401Z,20.07
2022-08-26T04:47:16.353Z,20.09
2022-08-26T04:49:50.364Z,20.10
2022-08-26T04:52:16.949Z,20.11
2022-08-26T04:54:43.460Z,20.13
2022-08-26T04:57:17.533Z,20.14
2022-08-26T04:59:44.520Z,20.16
2022-08-26T05:02:18.569Z,20.20
2022-08-26T05:04:45.944Z,20.19
2022-08-26T05:07:19.352Z,20.20
2022-08-26T05:09:45.983Z,20.19
2022-08-26T05:12:19.359Z,20.22
2022-08-26T05:14:53.362Z,20.22
2022-08-26T05:17:27.347Z,20.22
2022-08-26T05:19:54.039Z,20.20
2022-08-26T05:22:27.766Z,20.21
2022-08-26T05:24:54.384Z,20.19
2022-08-26T05:27:27.358Z,20.19
2022-08-26T05:29:57.400Z,20.22
2022-08-26T05:32:30.377Z,20.25
2022-08-26T05:35:17.380Z,20.24
2022-08-26T05:37:50.525Z,20.20
2022-08-26T05:40:17.626Z,20.18
2022-08-26T05:42:54.404Z,20.24
2022-08-26T05:45:24.343Z,20.24
2022-08-26T05:47:57.354Z,20.27
2022-08-26T05:50:25.628Z,20.28
2022-08-26T05:52:59.393Z,20.30
2022-08-26T05:55:25.979Z,20.34
2022-08-26T05:58:00.412Z,20.37
2022-08-26T06:00:29.439Z,20.36
2022-08-26T06:03:02.554Z,20.43
2022-08-26T06:05:29.269Z,20.45
2022-08-26T06:08:19.312Z,20.45
2022-08-26T06:10:56.416Z,20.45
2022-08-26T06:13:33.414Z,20.44
2022-08-26T06:16:11.473Z,20.48
2022-08-26T06:18:47.344Z,20.51
2022-08-26T06:21:35.373Z,20.55
2022-08-26T06:24:29.404Z,20.58
2022-08-26T06:26:57.574Z,20.59
2022-08-26T06:29:32.364Z,20.59
2022-08-26T06:32:00.170Z,20.38
2022-08-26T06:34:40.388Z,20.48
2022-08-26T06:37:14.481Z,20.60
2022-08-26T06:39:48.371Z,20.72
2022-08-26T06:42:24.346Z,20.79
2022-08-26T06:44:51.081Z,20.80
2022-08-26T06:47:24.377Z,20.90
2022-08-26T06:49:58.343Z,20.99
2022-08-26T06:52:24.996Z,21.19
2022-08-26T06:54:58.387Z,21.23
2022-08-26T06:57:31.635Z,21.28
2022-08-26T06:59:58.560Z,21.28
2022-08-26T07:05:27.528Z,21.47
2022-08-26T07:08:00.359Z,21.37
2022-08-26T07:10:34.349Z,21.29
2022-08-26T07:13:07.551Z,21.31
2022-08-26T07:15:36.095Z,21.41
2022-08-26T07:18:11.397Z,21.39
2022-08-26T07:20:40.271Z,21.42
2022-08-26T07:23:16.348Z,21.43
2022-08-26T07:25:50.348Z,21.41
2022-08-26T07:28:17.198Z,21.43
2022-08-26T07:30:50.423Z,21.58
2022-08-26T07:33:24.338Z,21.63
2022-08-26T07:35:57.559Z,21.55
2022-08-26T07:38:30.362Z,21.69
2022-08-26T07:41:01.820Z,21.64
2022-08-26T07:43:35.367Z,21.74
2022-08-26T07:46:02.618Z,21.67
2022-08-26T07:48:35.329Z,21.79
2022-08-26T07:51:03.074Z,21.85
2022-08-26T07:53:36.330Z,21.93
2022-08-26T07:56:03.171Z,21.85
2022-08-26T07:58:37.350Z,21.90
2022-08-26T08:01:11.397Z,22.01
2022-08-26T08:03:38.055Z,22.05
2022-08-26T08:06:11.364Z,22.09
2022-08-26T08:08:47.415Z,22.29
2022-08-26T08:11:21.393Z,22.23
2022-08-26T08:13:56.901Z,22.15
2022-08-26T08:16:32.407Z,22.18
2022-08-26T08:19:06.336Z,22.34
2022-08-26T08:21:32.848Z,22.41
2022-08-26T08:24:06.350Z,22.43
2022-08-26T08:26:33.039Z,22.43
2022-08-26T08:29:06.337Z,22.43
2022-08-26T08:34:34.375Z,22.50
2022-08-26T08:37:10.679Z,22.66
2022-08-26T08:42:17.325Z,22.54
2022-08-26T08:44:53.332Z,22.65
2022-08-26T08:47:22.854Z,22.80
2022-08-26T08:49:56.311Z,23.00
2022-08-26T08:52:36.162Z,22.92
2022-08-26T08:55:14.811Z,22.91
2022-08-26T08:57:56.104Z,22.93
2022-08-26T09:00:39.924Z,22.97
2022-08-26T09:03:24.388Z,23.00
2022-08-26T09:05:52.522Z,23.28
2022-08-26T09:08:31.302Z,23.35
2022-08-26T09:11:01.994Z,23.30
2022-08-26T09:13:36.355Z,23.26
2022-08-26T09:16:14.346Z,23.27
2022-08-26T09:18:48.346Z,23.41
2022-08-26T09:21:23.896Z,23.43
2022-08-26T09:24:00.326Z,23.41
2022-08-26T09:26:45.384Z,23.48
2022-08-26T09:29:33.340Z,23.72
2022-08-26T09:32:24.232Z,23.73
2022-08-26T09:35:14.336Z,23.85
2022-08-26T09:40:28.896Z,23.87
2022-08-26T09:43:14.367Z,23.86
2022-08-26T09:45:49.365Z,24.00
2022-08-26T09:48:41.350Z,24.00
2022-08-26T09:51:23.403Z,24.04
2022-08-26T09:53:58.335Z,24.07
2022-08-26T09:56:27.522Z,24.06
2022-08-26T09:59:01.304Z,24.25
2022-08-26T10:01:30.230Z,24.27
2022-08-26T10:04:21.445Z,24.42
2022-08-26T10:06:55.157Z,24.58
2022-08-26T10:09:28.341Z,24.64
2022-08-26T10:11:58.755Z,24.59
2022-08-26T10:14:38.365Z,24.68
2022-08-26T10:17:15.232Z,24.66
2022-08-26T10:19:56.519Z,24.73
2022-08-26T10:22:50.847Z,24.76
2022-08-26T10:25:31.322Z,24.84
2022-08-26T10:28:14.324Z,24.87
2022-08-26T10:30:47.519Z,24.96
2022-08-26T10:33:25.363Z,25.14
2022-08-26T10:36:15.382Z,24.85
2022-08-26T10:38:53.368Z,24.80
2022-08-26T10:41:24.205Z,24.88
2022-08-26T10:44:07.325Z,24.86
2022-08-26T10:46:39.731Z,24.95
2022-08-26T10:49:20.340Z,24.95
2022-08-26T10:51:53.996Z,24.93
2022-08-26T10:54:36.320Z,24.84
2022-08-26T10:57:03.198Z,25.04
2022-08-26T10:59:42.299Z,25.05
2022-08-26T11:02:15.496Z,25.11
2022-08-26T11:05:01.338Z,25.10
2022-08-26T11:07:32.451Z,25.12
2022-08-26T11:10:12.340Z,25.18
2022-08-26T11:12:42.136Z,25.23
2022-08-26T11:15:18.333Z,25.19
2022-08-26T11:17:52.348Z,25.16
2022-08-26T11:20:28.552Z,25.10
2022-08-26T11:23:02.315Z,25.13
2022-08-26T11:25:31.002Z,25.21
2022-08-26T11:28:06.414Z,25.24
2022-08-26T11:30:36.953Z,25.20
2022-08-26T11:33:10.640Z,25.22
2022-08-26T11:35:44.397Z,25.26
2022-08-26T11:38:26.347Z,25.16
2022-08-26T11:40:58.489Z,25.16
2022-08-26T11:43:33.308Z,25.26
2022-08-26T11:46:05.075Z,25.30
2022-08-26T11:48:43.307Z,25.32
2022-08-26T11:51:11.937Z,25.41
2022-08-26T11:53:48.328Z,25.42
2022-08-26T11:56:26.260Z,25.56
2022-08-26T11:59:03.333Z,25.63
2022-08-26T12:01:31.780Z,25.66
2022-08-26T12:04:06.639Z,25.65
2022-08-26T12:06:45.050Z,25.59
2022-08-26T12:09:26.317Z,25.78
2022-08-26T12:12:00.320Z,25.88
2022-08-26T12:14:33.296Z,25.97
2022-08-26T12:17:15.295Z,26.20
2022-08-26T12:19:42.666Z,26.24
2022-08-26T12:22:25.317Z,26.29
2022-08-26T12:24:55.724Z,26.55
2022-08-26T12:27:47.901Z,26.55
2022-08-26T12:30:24.208Z,26.45
2022-08-26T12:33:22.396Z,26.43
2022-08-26T12:36:10.304Z,26.69
2022-08-26T12:38:40.470Z,26.81
2022-08-26T12:41:13.303Z,26.85
2022-08-26T12:43:44.377Z,27.03
2022-08-26T12:46:19.305Z,27.12
2022-08-26T12:48:48.245Z,27.32
2022-08-26T12:51:32.332Z,27.39
2022-08-26T12:53:59.246Z,27.60
2022-08-26T12:56:34.297Z,27.70
2022-08-26T12:59:14.656Z,27.76
2022-08-26T13:01:50.354Z,27.82
2022-08-26T13:04:45.628Z,28.01
2022-08-26T13:07:38.311Z,27.97
2022-08-26T13:10:12.374Z,28.11
2022-08-26T13:12:41.524Z,28.36
2022-08-26T13:15:15.336Z,28.38
2022-08-26T13:17:42.152Z,28.63
2022-08-26T13:20:15.386Z,28.68
2022-08-26T13:22:42.364Z,28.99
2022-08-26T13:25:25.560Z,28.94
2022-08-26T14:24:00.938Z,31.31
2022-08-26T16:12:33.579Z,29.44
2022-08-26T16:22:05.342Z,29.39
2022-08-26T16:24:32.075Z,29.36
2022-08-26T16:27:05.315Z,29.27
2022-08-26T16:29:32.675Z,29.10
2022-08-26T16:32:06.332Z,29.09
2022-08-26T16:34:33.031Z,28.88
2022-08-26T16:37:07.299Z,28.94
2022-08-26T16:39:45.160Z,28.83
2022-08-26T16:42:25.314Z,28.71
2022-08-26T16:44:55.112Z,28.54
2022-08-26T16:47:29.330Z,28.57
2022-08-26T16:49:55.917Z,28.44
2022-08-26T16:52:36.528Z,28.42
2022-08-26T16:55:07.499Z,28.39
2022-08-26T16:57:43.293Z,28.27
2022-08-26T17:00:14.768Z,28.11
2022-08-26T17:02:48.343Z,28.05
2022-08-26T17:05:22.362Z,27.84
2022-08-26T17:07:48.883Z,27.71
2022-08-26T17:10:22.305Z,27.59
2022-08-26T17:12:48.853Z,27.46
2022-08-26T17:15:22.293Z,27.31
2022-08-26T17:17:48.891Z,27.23
2022-08-26T17:20:23.303Z,27.14
2022-08-26T17:22:50.871Z,27.06
2022-08-26T17:25:29.296Z,26.92
2022-08-26T17:30:30.926Z,26.71
2022-08-26T17:33:10.849Z,26.66
2022-08-26T17:35:37.944Z,26.61
2022-08-26T17:38:11.314Z,26.55
2022-08-26T17:40:44.405Z,26.46
2022-08-26T17:43:25.322Z,26.43
2022-08-26T17:45:52.631Z,26.36
2022-08-26T17:48:26.295Z,26.27
2022-08-26T17:50:53.605Z,26.23
2022-08-26T17:53:28.309Z,26.16
2022-08-26T17:55:54.898Z,26.13
2022-08-26T17:58:28.313Z,26.11
2022-08-26T18:00:55.948Z,26.04
2022-08-26T18:03:29.391Z,25.97
2022-08-26T18:05:56.144Z,25.90
2022-08-26T18:08:29.304Z,25.89
2022-08-26T18:10:55.853Z,25.82
2022-08-26T18:13:29.391Z,25.72
2022-08-26T18:15:56.199Z,25.63
2022-08-26T18:18:30.070Z,25.60
2022-08-26T18:21:03.309Z,25.53
2022-08-26T18:23:37.297Z,25.48
2022-08-26T18:26:04.120Z,25.46
2022-08-26T18:28:37.298Z,25.40
2022-08-26T18:31:07.299Z,25.38
2022-08-26T18:33:40.330Z,25.33
2022-08-26T18:36:06.991Z,25.30
2022-08-26T18:38:40.309Z,25.26
2022-08-26T18:41:29.467Z,25.25
2022-08-26T18:44:02.289Z,25.18
2022-08-26T18:46:28.913Z,25.16
2022-08-26T18:48:56.349Z,25.12
2022-08-26T18:51:32.298Z,25.07
2022-08-26T18:54:00.151Z,25.06
2022-08-26T18:56:33.290Z,25.00
2022-08-26T18:59:00.076Z,24.99
2022-08-26T19:01:34.373Z,24.97
2022-08-26T19:04:02.037Z,24.91
2022-08-26T19:06:38.290Z,24.86
2022-08-26T19:09:06.424Z,24.85
2022-08-26T19:11:43.345Z,24.79
2022-08-26T19:14:14.560Z,24.80
2022-08-26T19:16:49.624Z,24.75
2022-08-26T19:19:16.561Z,24.71
2022-08-26T19:21:49.311Z,24.58
2022-08-26T19:24:26.045Z,24.48
2022-08-26T19:27:02.300Z,24.41
2022-08-26T19:29:30.573Z,24.36
2022-08-26T19:32:04.324Z,24.32
2022-08-26T19:34:37.342Z,24.25
2022-08-26T19:37:10.314Z,24.20
2022-08-26T19:39:57.330Z,24.07
2022-08-26T19:42:30.327Z,23.95
2022-08-26T19:45:24.400Z,23.88
2022-08-26T19:47:59.300Z,23.87
2022-08-26T19:50:27.083Z,23.94
2022-08-26T19:53:00.311Z,23.94
2022-08-26T19:55:27.400Z,23.97
2022-08-26T19:58:00.289Z,24.01
2022-08-26T20:00:34.294Z,24.03
2022-08-26T20:03:07.320Z,24.01
2022-08-26T20:05:37.439Z,23.95
2022-08-26T20:08:16.777Z,23.97
2022-08-26T20:10:49.749Z,23.97
2022-08-26T20:13:23.282Z,23.98
2022-08-26T20:15:49.810Z,23.97
2022-08-26T20:18:41.293Z,23.97
2022-08-26T20:21:33.289Z,23.92
2022-08-26T20:24:08.359Z,23.91
2022-08-26T20:26:42.336Z,23.87
2022-08-26T20:29:10.738Z,23.90
2022-08-26T20:31:44.320Z,23.88
2022-08-26T20:34:18.330Z,23.86
2022-08-26T20:36:46.240Z,23.85
2022-08-26T20:39:20.305Z,23.87
2022-08-26T20:42:00.292Z,23.83
2022-08-26T20:44:28.653Z,23.76
2022-08-26T20:47:03.286Z,23.72
2022-08-26T20:49:30.365Z,23.69
2022-08-26T20:52:07.271Z,23.63
2022-08-26T20:54:33.937Z,23.57
2022-08-26T20:57:07.286Z,23.37
2022-08-26T20:59:33.850Z,23.22
2022-08-26T21:02:07.286Z,23.17
2022-08-26T21:04:34.579Z,23.15
2022-08-26T21:07:07.298Z,23.13
2022-08-26T21:09:40.279Z,23.11
2022-08-26T21:12:08.792Z,23.10
2022-08-26T21:14:45.640Z,23.03
2022-08-26T21:17:14.373Z,22.97
2022-08-26T21:19:47.270Z,22.88
2022-08-26T21:22:20.255Z,22.82
2022-08-26T21:24:47.213Z,22.79
2022-08-26T21:27:24.454Z,22.84
2022-08-26T21:29:53.442Z,22.87
2022-08-26T21:32:19.976Z,22.86
2022-08-26T21:34:53.260Z,22.88
2022-08-26T21:37:19.989Z,22.86
2022-08-26T21:39:53.297Z,22.89
2022-08-26T21:42:26.551Z,22.92
2022-08-26T21:45:00.295Z,22.93
2022-08-26T21:47:26.985Z,22.93
2022-08-26T21:50:00.263Z,22.97
2022-08-26T21:52:27.296Z,22.90
2022-08-26T21:55:08.786Z,22.82
2022-08-26T21:57:43.285Z,22.79
2022-08-26T22:00:19.289Z,22.79
2022-08-26T22:02:45.867Z,22.64
2022-08-26T22:05:19.318Z,22.61
2022-08-26T22:07:45.867Z,22.56
2022-08-26T22:10:12.710Z,22.57
2022-08-26T22:12:46.272Z,22.54
2022-08-26T22:15:13.331Z,22.57
2022-08-26T22:17:46.295Z,22.53
2022-08-26T22:20:19.264Z,22.50
2022-08-26T22:22:45.922Z,22.45
2022-08-26T22:25:19.255Z,22.44
2022-08-26T22:27:52.274Z,22.33
2022-08-26T22:30:19.927Z,22.28
2022-08-26T22:32:54.278Z,22.33
2022-08-26T22:35:28.707Z,22.37
2022-08-26T22:38:03.320Z,22.36
2022-08-26T22:40:50.246Z,22.36
2022-08-26T22:43:18.032Z,22.35
2022-08-26T22:45:52.303Z,22.35
2022-08-26T22:48:20.401Z,22.36
2022-08-26T22:50:47.633Z,22.34
2022-08-26T22:53:22.256Z,22.28
2022-08-26T22:55:56.257Z,22.27
2022-08-26T22:58:23.055Z,22.20
2022-08-26T23:01:04.302Z,22.18
2022-08-26T23:03:31.556Z,22.15
2022-08-26T23:06:05.266Z,22.14
2022-08-26T23:08:31.805Z,22.14
2022-08-26T23:11:05.272Z,22.13
2022-08-26T23:13:31.840Z,22.11
2022-08-26T23:16:09.326Z,22.07
2022-08-26T23:18:36.331Z,22.07
2022-08-26T23:21:09.261Z,22.04
2022-08-26T23:23:35.898Z,22.04
2022-08-26T23:26:05.937Z,21.99
2022-08-26T23:28:40.256Z,21.96
2022-08-26T23:31:07.447Z,21.92
2022-08-26T23:33:59.248Z,21.90
2022-08-26T23:36:32.296Z,21.81
2022-08-26T23:39:09.248Z,21.80
2022-08-26T23:41:56.278Z,21.81
2022-08-26T23:44:25.497Z,21.79
2022-08-26T23:46:52.160Z,21.72
2022-08-26T23:49:25.238Z,21.71
2022-08-26T23:52:10.920Z,21.69
2022-08-26T23:54:44.528Z,21.66
2022-08-26T23:57:11.076Z,21.64
2022-08-26T23:59:45.256Z,21.65
